Time;durP1;ratioP1;P1;durP2;ratioP2;P2;SDS_P1;SDS_P2;PMS_P1;PMS_P2;Temp;Humidity;BMP_temperature;BMP_pressure;BME280_temperature;BME280_humidity;BME280_pressure;Samples;Min_cycle;Max_cycle;Signal;HPM_P1;HPM_P2
2022/01/22 00:01:00;;;;;;;6.60;3.08;;;;;;;15.76;44.93;100955.69;4993049;28;20040;-86
2022/01/22 00:03:26;;;;;;;6.03;3.63;;;;;;;15.75;44.90;100940.81;4995283;28;20034;-85
2022/01/22 00:05:52;;;;;;;8.15;3.78;;;;;;;15.78;44.74;100943.38;4978555;28;20037;-86
2022/01/22 00:08:18;;;;;;;5.63;3.38;;;;;;;15.76;44.97;100945.19;4995785;28;20038;-86
2022/01/22 00:10:45;;;;;;;5.95;3.55;;;;;;;15.76;44.89;100945.19;4996001;28;20099;-87
2022/01/22 00:14:23;;;;;;;7.03;3.75;;;;;;;15.79;44.81;100946.91;4996481;28;20023;-86
2022/01/22 00:16:03;;;;;;;5.57;3.25;;;;;;;15.80;44.80;100936.31;5009164;28;20503;-86
2022/01/22 00:18:29;;;;;;;5.75;3.08;;;;;;;15.81;44.81;100927.56;5011472;28;20030;-87
2022/01/22 00:20:54;;;;;;;6.22;3.45;;;;;;;15.80;44.81;100932.84;4990863;28;20061;-87
2022/01/22 00:23:26;;;;;;;5.13;3.03;;;;;;;15.79;44.86;100942.47;4990811;28;20041;-87
2022/01/22 00:25:52;;;;;;;5.25;2.97;;;;;;;15.77;44.89;100936.38;4991433;28;20098;-86
2022/01/22 00:28:17;;;;;;;7.28;3.70;;;;;;;15.82;44.89;100934.56;4992567;28;20074;-86
2022/01/22 00:30:43;;;;;;;5.85;2.85;;;;;;;15.79;45.14;100939.00;4993839;28;20411;-86
2022/01/22 00:33:10;;;;;;;6.10;3.00;;;;;;;15.78;45.01;100927.59;4976076;28;20102;-85
2022/01/22 00:35:36;;;;;;;5.47;3.13;;;;;;;15.81;45.04;100924.03;4979069;28;20038;-84
2022/01/22 00:38:12;;;;;;;7.78;3.33;;;;;;;15.79;44.93;100929.31;4995561;28;20035;-85
2022/01/22 00:40:50;;;;;;;7.03;3.38;;;;;;;15.81;45.00;100926.66;4966317;28;20098;-86
2022/01/22 00:43:16;;;;;;;5.78;3.10;;;;;;;15.82;44.80;100918.75;4966060;28;20060;-84
2022/01/22 00:45:42;;;;;;;4.53;2.60;;;;;;;15.86;44.96;100921.31;4979317;28;20030;-86
2022/01/22 00:48:10;;;;;;;6.53;3.17;;;;;;;15.84;44.92;100914.31;4995652;28;20027;-84
2022/01/22 00:50:56;;;;;;;5.25;2.97;;;;;;;15.84;44.78;100919.59;4985186;28;20023;-87
2022/01/22 00:53:22;;;;;;;6.25;3.30;;;;;;;15.83;44.84;100920.50;4997364;28;20022;-85
2022/01/22 00:55:48;;;;;;;7.90;3.25;;;;;;;15.84;44.70;100922.22;4988731;28;20066;-86
2022/01/22 00:58:14;;;;;;;6.03;3.03;;;;;;;15.80;44.92;100915.25;4992255;28;20031;-85
2022/01/22 01:00:40;;;;;;;7.47;3.75;;;;;;;15.81;44.55;100921.41;4992387;28;20031;-85
2022/01/22 01:03:05;;;;;;;6.00;3.15;;;;;;;15.86;44.89;100923.97;4995150;28;20073;-86
2022/01/22 01:05:31;;;;;;;4.50;3.08;;;;;;;15.88;44.81;100932.72;4994592;28;20054;-86
2022/01/22 01:07:57;;;;;;;5.28;3.20;;;;;;;15.86;44.54;100929.22;4991226;28;20122;-86
2022/01/22 01:10:23;;;;;;;5.10;2.88;;;;;;;15.87;44.87;100931.00;4990177;28;20070;-86
2022/01/22 01:12:50;;;;;;;5.22;2.90;;;;;;;15.87;44.75;100931.00;4992942;28;20042;-86
2022/01/22 01:34:21;;;;;;;5.38;2.90;;;;;;;15.84;44.58;100932.75;5004507;28;20033;-86
2022/01/22 01:36:48;;;;;;;6.10;3.00;;;;;;;15.84;44.75;100929.28;4988868;28;20113;-86
2022/01/22 01:39:24;;;;;;;5.32;2.80;;;;;;;15.83;44.56;100924.88;4991762;28;20030;-86
2022/01/22 01:44:17;;;;;;;5.45;2.67;;;;;;;15.87;44.75;100942.38;5009674;28;20430;-86
2022/01/22 01:46:56;;;;;;;5.20;3.03;;;;;;;15.82;44.76;100929.28;4975220;28;20204;-86
2022/01/22 01:49:22;;;;;;;4.88;2.60;;;;;;;15.84;44.59;100924.00;4991464;28;20033;-86
2022/01/22 01:51:47;;;;;;;5.80;2.75;;;;;;;15.83;44.74;100923.13;5008007;28;20026;-85
2022/01/22 01:59:29;;;;;;;6.03;2.80;;;;;;;15.82;44.70;100910.84;5010912;28;20120;-87
2022/01/22 02:01:55;;;;;;;6.65;3.20;;;;;;;15.81;44.76;100922.28;4976135;28;20034;-86
2022/01/22 02:04:21;;;;;;;5.93;3.13;;;;;;;15.85;44.61;100920.47;4992355;28;20064;-86
2022/01/22 02:06:47;;;;;;;4.90;2.65;;;;;;;15.83;44.76;100909.97;4993244;28;20026;-86
2022/01/22 02:09:12;;;;;;;5.72;2.65;;;;;;;15.82;44.78;100913.50;4992637;28;20030;-87
2022/01/22 02:11:40;;;;;;;5.65;2.63;;;;;;;15.87;44.69;100920.47;4990737;28;20040;-86
2022/01/22 02:25:07;;;;;;;5.25;2.85;;;;;;;15.89;44.40;100908.97;5010174;28;20094;-87
2022/01/22 02:27:35;;;;;;;5.05;2.75;;;;;;;15.85;44.67;100915.22;5000825;28;20044;-88
2022/01/22 02:30:22;;;;;;;6.13;3.20;;;;;;;15.88;44.37;100907.25;5002452;28;20065;-85
2022/01/22 02:35:57;;;;;;;5.85;3.10;;;;;;;15.93;44.56;100915.13;4980806;28;20062;-86
2022/01/22 02:38:41;;;;;;;4.78;3.03;;;;;;;15.86;44.47;100911.69;4994355;28;20049;-85
2022/01/22 02:41:13;;;;;;;4.93;2.72;;;;;;;15.89;44.52;100900.22;4994669;28;20034;-88
2022/01/22 02:47:07;;;;;;;5.97;3.20;;;;;;;15.87;44.39;100904.66;4993254;28;20099;-84
2022/01/22 02:49:51;;;;;;;6.85;3.45;;;;;;;15.86;44.49;100909.03;4996549;28;20034;-86
2022/01/22 02:52:17;;;;;;;4.90;2.90;;;;;;;15.84;44.22;100902.94;4999735;28;20007;-86
2022/01/22 02:54:43;;;;;;;6.97;2.90;;;;;;;15.83;44.63;100891.53;4994592;28;20093;-87
2022/01/22 02:57:10;;;;;;;5.53;2.83;;;;;;;15.89;44.36;100892.34;5005097;28;20023;-87
2022/01/22 02:59:45;;;;;;;5.57;3.00;;;;;;;15.89;44.25;100908.97;4994703;28;20030;-87
2022/01/22 03:02:31;;;;;;;5.80;3.00;;;;;;;15.90;44.50;100899.34;4990903;28;20026;-87
2022/01/22 03:05:17;;;;;;;5.30;2.90;;;;;;;15.84;44.25;100900.31;4992880;28;20069;-87
2022/01/22 03:07:48;;;;;;;5.05;2.80;;;;;;;15.85;44.55;100902.03;4988413;28;20037;-88
2022/01/22 03:10:16;;;;;;;5.22;2.75;;;;;;;15.89;44.55;100908.13;5004871;28;20101;-86
2022/01/22 03:20:41;;;;;;;5.75;2.60;;;;;;;15.82;44.41;100896.81;5009534;28;20051;-86
2022/01/22 03:23:12;;;;;;;6.50;2.67;;;;;;;15.85;44.38;100902.03;4994022;28;20376;-87
2022/01/22 03:28:27;;;;;;;5.45;2.85;;;;;;;15.80;44.78;100893.34;5011081;28;20119;-87
2022/01/22 03:30:53;;;;;;;5.80;2.33;;;;;;;15.82;44.80;100897.69;4993472;28;20028;-87
2022/01/22 03:33:22;;;;;;;5.60;3.00;;;;;;;15.81;44.86;100885.44;4991477;28;20388;-87
2022/01/22 03:35:54;;;;;;;5.15;2.80;;;;;;;15.81;44.74;100889.81;4987252;28;20018;-87
2022/01/22 03:38:21;;;;;;;5.57;2.88;;;;;;;15.85;44.49;100891.53;4987575;28;20027;-87
2022/01/22 03:40:49;;;;;;;5.65;2.88;;;;;;;15.87;44.61;100894.97;4990441;28;20094;-86
2022/01/22 03:43:15;;;;;;;6.30;3.05;;;;;;;15.89;44.54;100903.72;4992494;28;20025;-87
2022/01/22 03:45:41;;;;;;;5.32;2.65;;;;;;;15.82;44.57;100889.81;5012154;28;20018;-87
2022/01/22 03:48:07;;;;;;;4.80;2.47;;;;;;;15.89;44.58;100892.34;4992961;28;20023;-87
2022/01/22 03:50:33;;;;;;;5.40;2.75;;;;;;;15.87;44.50;100888.88;4986845;28;20097;-87
2022/01/22 03:52:59;;;;;;;5.53;2.80;;;;;;;15.89;44.60;100889.69;4985673;28;20029;-86
2022/01/22 03:55:57;;;;;;;6.22;2.78;;;;;;;15.90;44.28;100899.34;4984467;28;20030;-87
2022/01/22 03:58:11;;;;;;;4.53;2.58;;;;;;;15.87;44.50;100894.13;5003287;28;20041;-87
2022/01/22 04:00:36;;;;;;;4.45;2.53;;;;;;;15.86;44.35;100876.56;4983132;28;20034;-86
2022/01/22 04:05:33;;;;;;;5.13;2.60;;;;;;;15.89;44.43;100890.56;5001422;28;20033;-86
2022/01/22 04:08:16;;;;;;;6.05;2.90;;;;;;;15.86;44.38;100887.09;4993834;28;20077;-87
2022/01/22 04:10:42;;;;;;;4.72;2.50;;;;;;;15.82;44.57;100886.28;4968000;28;20014;-87
2022/01/22 04:13:13;;;;;;;4.88;2.42;;;;;;;15.84;44.53;100885.38;4997309;28;20049;-88
2022/01/22 04:15:40;;;;;;;5.38;2.70;;;;;;;15.84;44.51;100888.00;4977476;28;20102;-88
2022/01/22 04:27:06;;;;;;;4.22;2.47;;;;;;;15.81;44.86;100900.34;5002446;28;20093;-88
2022/01/22 04:29:34;;;;;;;5.15;2.55;;;;;;;15.81;44.77;100895.97;4998460;28;20031;-87
2022/01/22 04:32:00;;;;;;;4.30;2.33;;;;;;;15.84;44.67;100890.63;4972684;28;20062;-85
2022/01/22 04:34:25;;;;;;;4.13;2.30;;;;;;;15.87;44.84;100904.66;4985220;28;20030;-86
2022/01/22 04:36:51;;;;;;;5.30;2.95;;;;;;;15.84;44.57;100902.94;4985469;28;20035;-85
2022/01/22 04:39:19;;;;;;;4.32;2.25;;;;;;;15.83;44.88;100904.69;4987342;28;20026;-86
2022/01/22 04:41:45;;;;;;;4.35;2.00;;;;;;;15.84;44.81;100906.44;4985372;28;20019;-86
2022/01/22 04:44:11;;;;;;;4.22;2.50;;;;;;;15.83;45.04;100907.31;4984679;28;20037;-86
2022/01/22 04:57:01;;;;;;;5.13;2.33;;;;;;;15.81;44.63;100913.50;4984144;28;20101;-88
2022/01/22 04:59:27;;;;;;;5.07;2.33;;;;;;;15.85;44.81;100917.84;4987045;28;20052;-85
2022/01/22 05:01:53;;;;;;;5.28;2.80;;;;;;;15.82;44.65;100905.59;4982166;28;20038;-86
2022/01/22 05:04:18;;;;;;;4.85;2.47;;;;;;;15.80;44.60;100904.72;4982965;28;20452;-86
2022/01/22 05:06:44;;;;;;;4.22;2.47;;;;;;;15.84;44.70;100901.16;4991361;28;20057;-87
2022/01/22 05:09:10;;;;;;;4.70;2.40;;;;;;;15.80;44.88;100891.56;4992234;28;20035;-87
2022/01/22 05:12:06;;;;;;;4.70;2.17;;;;;;;15.83;44.70;100899.44;5000455;28;20053;-84
2022/01/22 05:14:33;;;;;;;4.38;2.25;;;;;;;15.81;44.74;100900.34;5001085;28;20027;-85
2022/01/22 05:17:02;;;;;;;5.28;2.45;;;;;;;15.83;44.75;100901.19;4996471;28;20053;-86
2022/01/22 05:22:15;;;;;;;3.60;2.00;;;;;;;15.81;44.93;100906.50;4996093;28;20050;-87
2022/01/22 05:24:46;;;;;;;4.65;2.70;;;;;;;15.83;44.77;100911.72;4979559;28;20089;-87
2022/01/22 05:33:13;;;;;;;4.00;2.10;;;;;;;15.82;44.63;100918.75;4987398;28;20041;-87
2022/01/22 05:38:12;;;;;;;4.60;2.28;;;;;;;15.77;44.89;100924.97;4990282;28;20076;-87
2022/01/22 05:40:38;;;;;;;4.90;2.50;;;;;;;15.84;44.67;100943.28;4980606;28;20531;-86
2022/01/22 05:43:04;;;;;;;4.28;2.10;;;;;;;15.81;44.46;100943.34;4980281;28;20034;-86
2022/01/22 05:45:30;;;;;;;4.78;2.00;;;;;;;15.81;44.70;100930.19;4981893;28;20026;-87
2022/01/22 05:47:56;;;;;;;4.35;2.17;;;;;;;15.81;44.74;100937.19;4986383;28;20062;-86
2022/01/22 06:01:16;;;;;;;4.75;2.20;;;;;;;15.87;44.59;100937.09;4990649;28;20110;-87
2022/01/22 06:03:43;;;;;;;3.58;2.15;;;;;;;15.86;44.68;100935.38;4988864;28;20191;-86
2022/01/22 06:06:09;;;;;;;4.10;2.10;;;;;;;15.83;44.61;100936.28;4982627;28;20054;-87
2022/01/22 06:08:56;;;;;;;3.53;2.00;;;;;;;15.84;44.67;100937.16;4981755;28;20464;-87
2022/01/22 06:11:25;;;;;;;4.70;2.20;;;;;;;15.83;44.78;100936.28;4980212;28;20054;-86
2022/01/22 06:13:51;;;;;;;2.85;1.65;;;;;;;15.79;44.66;100939.84;4980276;28;20039;-86
2022/01/22 06:16:20;;;;;;;3.83;2.10;;;;;;;15.83;44.84;100941.56;4980314;28;20030;-85
2022/01/22 06:18:46;;;;;;;4.55;2.08;;;;;;;15.80;44.72;100941.59;4979778;28;20364;-86
2022/01/22 06:21:12;;;;;;;4.35;2.30;;;;;;;15.81;44.63;100947.72;4979854;28;20057;-86
2022/01/22 06:23:39;;;;;;;4.68;2.40;;;;;;;15.83;44.69;100943.28;4980679;28;20041;-86
2022/01/22 06:26:07;;;;;;;5.18;2.05;;;;;;;15.87;44.61;100952.03;4979846;28;20031;-86
2022/01/22 06:28:34;;;;;;;5.00;2.25;;;;;;;15.80;44.79;100946.00;4981696;28;20031;-87
2022/01/22 06:31:00;;;;;;;4.35;2.33;;;;;;;15.87;44.60;100954.69;4983139;28;20031;-86
2022/01/22 06:33:26;;;;;;;4.97;2.40;;;;;;;15.83;44.51;100959.97;4982676;28;20038;-86
2022/01/22 06:35:52;;;;;;;4.35;2.10;;;;;;;15.88;44.34;100964.31;4981655;28;20054;-87
2022/01/22 06:38:18;;;;;;;4.65;2.55;;;;;;;15.81;44.42;100964.41;4981846;28;20023;-86
2022/01/22 06:43:30;;;;;;;4.22;2.30;;;;;;;15.84;44.33;100964.34;4980236;28;20038;-88
2022/01/22 06:45:57;;;;;;;4.05;2.58;;;;;;;15.87;44.45;100973.09;4980245;28;20057;-87
2022/01/22 06:48:23;;;;;;;4.18;2.33;;;;;;;15.79;44.35;100976.69;4986327;28;20041;-87
2022/01/22 06:50:49;;;;;;;4.18;2.58;;;;;;;15.82;44.22;100971.41;4991630;28;20022;-87
2022/01/22 06:53:15;;;;;;;4.72;2.10;;;;;;;15.81;44.27;100969.66;4989179;28;20041;-86
2022/01/22 06:55:45;;;;;;;4.78;2.15;;;;;;;15.82;44.37;100968.78;4990054;28;20054;-87
2022/01/22 06:58:10;;;;;;;4.90;2.45;;;;;;;15.80;44.29;100967.91;4992687;28;20031;-87
2022/01/22 07:00:36;;;;;;;4.72;2.45;;;;;;;15.80;44.30;100969.69;4986611;28;20034;-86
2022/01/22 07:03:02;;;;;;;4.60;2.65;;;;;;;15.80;44.20;100967.91;4985865;28;20030;-87
2022/01/22 07:05:28;;;;;;;4.85;2.55;;;;;;;15.86;44.18;100972.22;4988919;28;20026;-86
2022/01/22 07:07:54;;;;;;;4.45;2.20;;;;;;;15.86;44.11;100973.97;4984938;28;20479;-86
2022/01/22 07:10:20;;;;;;;4.85;2.42;;;;;;;15.81;44.30;100980.19;4983218;28;20122;-86
2022/01/22 07:12:45;;;;;;;4.68;2.40;;;;;;;15.80;44.35;100975.81;4986172;28;20036;-87
2022/01/22 07:15:11;;;;;;;4.10;2.10;;;;;;;15.80;44.25;100972.31;4989986;28;20046;-86
2022/01/22 07:17:39;;;;;;;6.00;2.50;;;;;;;15.78;44.15;100982.84;4983391;28;20106;-86
2022/01/22 07:20:12;;;;;;;4.43;2.30;;;;;;;15.81;44.24;100974.94;4984652;28;20051;-86
2022/01/22 07:25:40;;;;;;;4.35;2.28;;;;;;;15.79;43.96;100986.38;4923344;29;20112;-86
2022/01/22 07:28:06;;;;;;;4.35;2.30;;;;;;;15.80;43.97;100967.91;4968592;28;20039;-86
2022/01/22 07:30:32;;;;;;;4.20;2.40;;;;;;;15.76;43.99;100966.22;4980038;28;20441;-86
2022/01/22 07:32:58;;;;;;;3.70;2.00;;;;;;;15.76;44.21;100960.97;4980370;28;20125;-87
2022/01/22 07:35:24;;;;;;;5.32;2.50;;;;;;;15.81;44.21;100969.66;4983890;28;20026;-86
2022/01/22 07:37:49;;;;;;;4.60;2.28;;;;;;;15.75;44.37;100964.50;4983727;28;20038;-87
2022/01/22 07:40:16;;;;;;;3.58;2.30;;;;;;;15.75;44.26;100963.63;4982357;28;20030;-87
2022/01/22 07:42:46;;;;;;;4.28;2.47;;;;;;;15.77;44.15;100965.34;4972445;28;20118;-87
2022/01/22 07:45:12;;;;;;;4.28;2.58;;;;;;;15.77;44.23;100962.69;4982016;28;20438;-86
2022/01/22 07:47:38;;;;;;;4.03;2.58;;;;;;;15.76;44.11;100960.97;4979782;28;20125;-87
2022/01/22 07:50:05;;;;;;;5.43;2.70;;;;;;;15.80;44.08;100954.75;4979996;28;20022;-87
2022/01/22 07:52:30;;;;;;;5.20;2.45;;;;;;;15.82;44.15;100960.00;4981476;28;20532;-86
2022/01/22 07:54:56;;;;;;;5.35;2.53;;;;;;;15.80;44.24;100957.38;4982564;28;20039;-86
2022/01/22 07:57:22;;;;;;;3.90;2.30;;;;;;;15.76;44.24;100965.34;4981446;28;20346;-85
2022/01/22 07:59:47;;;;;;;4.35;2.53;;;;;;;15.79;44.21;100960.91;4980380;28;20030;-85
2022/01/22 08:02:14;;;;;;;6.03;3.17;;;;;;;15.77;44.19;100952.19;4982635;28;20091;-86
2022/01/22 08:04:40;;;;;;;4.80;2.65;;;;;;;15.79;44.18;100953.00;4984234;28;20054;-86
2022/01/22 08:07:06;;;;;;;5.85;3.40;;;;;;;15.72;44.29;100959.25;4985000;28;20046;-86
2022/01/22 08:09:32;;;;;;;5.75;3.28;;;;;;;15.79;44.17;100966.16;4983820;28;20031;-86
2022/01/22 08:11:59;;;;;;;5.72;3.08;;;;;;;15.79;44.18;100965.31;4990962;28;20038;-85
2022/01/22 08:14:25;;;;;;;4.70;2.85;;;;;;;15.77;44.25;100962.69;4993765;28;20026;-86
2022/01/22 08:16:52;;;;;;;6.50;3.08;;;;;;;15.76;44.38;100963.59;4991603;28;20027;-86
2022/01/22 08:19:18;;;;;;;5.45;3.10;;;;;;;15.76;44.42;100966.22;4985394;28;20464;-86
2022/01/22 08:21:45;;;;;;;6.50;3.60;;;;;;;15.79;44.42;100968.81;4978469;28;20392;-86
2022/01/22 08:24:12;;;;;;;5.65;3.25;;;;;;;15.83;44.09;100959.97;4981741;28;20041;-86
2022/01/22 08:26:45;;;;;;;6.18;3.40;;;;;;;15.81;44.35;100958.25;4985622;28;20030;-85
2022/01/22 08:29:11;;;;;;;6.35;3.42;;;;;;;15.84;44.36;100964.34;4985176;28;20035;-87
2022/01/22 08:31:46;;;;;;;5.28;3.30;;;;;;;15.88;44.26;100959.03;4986281;28;20038;-84
2022/01/22 08:36:59;;;;;;;6.50;3.78;;;;;;;15.82;44.23;100955.59;4978409;28;20049;-85
2022/01/22 08:39:25;;;;;;;5.63;3.05;;;;;;;15.82;44.28;100950.34;4978881;28;20038;-87
2022/01/22 08:41:51;;;;;;;5.22;2.92;;;;;;;15.84;44.33;100961.72;4982909;28;20030;-86
2022/01/22 08:44:17;;;;;;;5.88;3.40;;;;;;;15.85;44.31;100962.59;4977056;28;20081;-85
2022/01/22 08:46:43;;;;;;;5.57;2.97;;;;;;;15.91;44.58;100969.50;4977836;28;20440;-85
2022/01/22 08:49:09;;;;;;;5.53;2.72;;;;;;;15.90;44.49;100970.41;4979344;28;20073;-85
2022/01/22 08:51:38;;;;;;;5.78;3.10;;;;;;;15.90;44.52;100967.78;4977973;28;20036;-86
2022/01/22 08:54:04;;;;;;;4.65;2.90;;;;;;;15.89;44.67;100971.31;4975703;28;20022;-86
2022/01/22 08:56:30;;;;;;;9.13;3.88;;;;;;;15.93;44.55;100975.66;4976011;28;20027;-87
2022/01/22 08:58:56;;;;;;;19.83;5.40;;;;;;;16.00;44.99;100974.69;4981831;28;20368;-87
2022/01/22 09:01:24;;;;;;;17.77;5.30;;;;;;;16.06;45.11;100969.31;4977644;28;20031;-84
2022/01/22 09:03:50;;;;;;;14.02;5.65;;;;;;;16.08;45.08;100962.25;4977366;28;20480;-83
2022/01/22 09:06:17;;;;;;;9.88;5.22;;;;;;;16.10;44.68;100970.13;4976505;28;20034;-86
2022/01/22 09:08:45;;;;;;;13.13;4.93;;;;;;;16.14;44.70;100963.94;4976413;28;20125;-85
2022/01/22 09:11:11;;;;;;;10.43;4.40;;;;;;;16.21;44.74;100969.94;4978389;28;20038;-84
2022/01/22 09:13:36;;;;;;;10.98;4.88;;;;;;;16.21;44.87;100967.31;4979004;28;20376;-83
2022/01/22 09:16:03;;;;;;;12.80;5.22;;;;;;;16.25;44.63;100966.38;4979985;28;20030;-83
2022/01/22 09:18:29;;;;;;;15.65;5.07;;;;;;;16.28;44.72;100963.69;4981101;28;20046;-82
2022/01/22 09:21:02;;;;;;;8.90;4.50;;;;;;;16.30;44.74;100961.88;4979676;28;20483;-84
2022/01/22 09:23:29;;;;;;;12.07;5.30;;;;;;;16.33;44.80;100958.34;4979731;28;20027;-84
2022/01/22 09:25:56;;;;;;;12.10;5.43;;;;;;;16.38;44.65;100954.72;4979600;28;20038;-83
2022/01/22 09:28:22;;;;;;;15.25;4.95;;;;;;;16.40;44.38;100952.06;4979835;28;20114;-83
2022/01/22 09:30:48;;;;;;;11.35;5.05;;;;;;;16.43;44.56;100957.28;4980154;28;20022;-83
2022/01/22 09:33:14;;;;;;;8.75;4.65;;;;;;;16.46;44.54;100965.13;4979351;28;20062;-83
2022/01/22 09:35:40;;;;;;;9.90;4.80;;;;;;;16.49;44.40;100966.81;4981078;28;20023;-84
2022/01/22 09:38:05;;;;;;;9.02;4.05;;;;;;;16.49;44.86;100972.97;4979830;28;20025;-83
2022/01/22 09:40:32;;;;;;;8.50;4.32;;;;;;;16.54;44.55;100975.53;4980847;28;20026;-83
2022/01/22 09:42:59;;;;;;;8.27;4.05;;;;;;;16.57;44.39;100975.44;4981536;28;20031;-85
2022/01/22 09:45:30;;;;;;;11.18;5.28;;;;;;;16.58;44.60;100973.69;4980108;28;20030;-84
2022/01/22 09:47:58;;;;;;;8.05;4.13;;;;;;;16.60;44.29;100975.41;4977353;28;20419;-85
2022/01/22 09:50:26;;;;;;;8.82;4.43;;;;;;;16.62;44.31;100972.75;4978000;28;20031;-87
2022/01/22 09:52:52;;;;;;;6.93;3.78;;;;;;;16.66;44.19;100973.56;4978160;28;20027;-87
2022/01/22 09:55:18;;;;;;;8.90;4.47;;;;;;;16.66;44.20;100969.13;4977891;28;20042;-86
2022/01/22 09:57:45;;;;;;;9.20;4.03;;;;;;;16.71;44.07;100966.44;4977944;28;20022;-86
2022/01/22 10:00:13;;;;;;;8.68;4.50;;;;;;;16.74;44.36;100966.38;4977813;28;20069;-85
2022/01/22 10:02:48;;;;;;;10.80;4.43;;;;;;;16.74;44.29;100982.19;4980280;28;20023;-85
2022/01/22 10:05:34;;;;;;;7.55;3.88;;;;;;;16.77;44.46;100982.13;4979270;28;20480;-85
2022/01/22 10:08:31;;;;;;;10.10;4.43;;;;;;;16.81;44.29;100981.19;4977683;28;20050;-84
2022/01/22 10:10:58;;;;;;;8.68;4.20;;;;;;;16.82;44.31;100975.00;4979982;28;20035;-85
2022/01/22 10:13:47;;;;;;;9.77;4.30;;;;;;;16.84;44.22;100989.03;4979911;28;20035;-88
2022/01/22 10:16:22;;;;;;;8.68;4.35;;;;;;;16.85;44.41;100987.28;4980061;28;20019;-86
2022/01/22 10:19:15;;;;;;;8.23;4.32;;;;;;;16.87;44.21;100990.72;4981400;28;20062;-88
2022/01/22 10:21:45;;;;;;;12.15;4.75;;;;;;;16.86;44.41;100995.13;4983826;28;20051;-89
2022/01/22 10:24:30;;;;;;;11.77;4.68;;;;;;;16.87;44.10;101003.91;4980693;28;20058;-88
2022/01/22 10:30:02;;;;;;;9.95;3.90;;;;;;;16.94;44.08;101009.97;4981159;28;20026;-86
2022/01/22 10:32:44;;;;;;;7.82;3.78;;;;;;;16.95;44.16;101006.41;4982814;28;20457;-88
2022/01/22 10:35:16;;;;;;;11.35;4.55;;;;;;;16.98;43.85;101006.34;4981237;28;20480;-88
2022/01/22 10:37:44;;;;;;;7.38;3.90;;;;;;;16.95;44.24;100998.50;4983006;28;20027;-90
2022/01/22 10:40:30;;;;;;;9.35;4.45;;;;;;;17.01;43.90;101006.28;4983218;28;20027;-87
2022/01/22 10:43:20;;;;;;;8.70;4.18;;;;;;;17.04;43.67;101000.97;4980170;28;20027;-87
2022/01/22 10:46:07;;;;;;;8.48;4.50;;;;;;;17.00;43.87;100994.00;4981503;28;20050;-88
2022/01/22 10:48:41;;;;;;;8.63;4.20;;;;;;;17.03;43.89;100988.69;4982385;28;20507;-89
2022/01/22 10:51:12;;;;;;;8.25;4.20;;;;;;;17.07;43.98;100982.47;4978822;28;20032;-88
2022/01/22 10:53:45;;;;;;;7.65;3.70;;;;;;;17.07;43.90;100979.81;4982031;28;20118;-86
2022/01/22 10:56:17;;;;;;;6.72;3.60;;;;;;;17.10;43.95;100984.19;4982359;28;20035;-85
2022/01/22 10:59:06;;;;;;;8.40;4.13;;;;;;;17.10;43.96;100979.75;4983788;28;20126;-85
2022/01/22 11:01:52;;;;;;;8.07;4.03;;;;;;;17.14;43.75;100967.41;4983091;28;20109;-85
2022/01/22 11:04:21;;;;;;;7.90;3.65;;;;;;;17.13;43.74;100965.63;4981393;28;20023;-84
2022/01/22 11:07:15;;;;;;;6.70;3.58;;;;;;;17.15;43.79;100951.50;4982227;28;20464;-85
2022/01/22 11:09:41;;;;;;;6.63;3.50;;;;;;;17.13;43.81;100942.78;4970027;28;20097;-85
2022/01/22 11:12:07;;;;;;;8.02;3.42;;;;;;;17.16;43.91;100941.84;4976267;28;20031;-84
2022/01/22 11:14:36;;;;;;;8.10;3.90;;;;;;;17.17;43.74;100944.47;4977128;28;20118;-85
2022/01/22 11:17:02;;;;;;;6.40;3.65;;;;;;;17.21;43.60;100933.81;4977121;28;20558;-84
2022/01/22 11:19:33;;;;;;;6.63;3.72;;;;;;;17.24;43.71;100928.50;4977296;28;20027;-84
2022/01/22 11:22:04;;;;;;;7.80;3.60;;;;;;;17.22;43.72;100927.63;4975510;28;20122;-85
2022/01/22 11:24:34;;;;;;;6.20;3.20;;;;;;;17.22;43.54;100932.91;4976244;28;20031;-84
2022/01/22 11:27:02;;;;;;;8.10;3.53;;;;;;;17.26;43.80;100926.69;4977159;28;20023;-84
2022/01/22 11:29:50;;;;;;;6.78;3.40;;;;;;;17.26;43.64;100924.91;4976779;28;20031;-85
2022/01/22 11:32:19;;;;;;;6.90;3.50;;;;;;;17.29;43.48;100929.25;4966930;28;20105;-85
2022/01/22 11:34:47;;;;;;;7.15;3.45;;;;;;;17.28;43.50;100924.88;4976295;28;20062;-84
2022/01/22 11:37:23;;;;;;;6.20;3.33;;;;;;;17.31;43.38;100930.09;4976885;28;20498;-84
2022/01/22 11:40:31;;;;;;;7.78;3.80;;;;;;;17.31;43.53;100925.69;4975763;28;20038;-85
2022/01/22 11:43:05;;;;;;;7.15;3.45;;;;;;;17.32;43.27;100916.00;4975796;28;20045;-85
2022/01/22 11:45:41;;;;;;;6.40;3.55;;;;;;;17.34;43.38;100919.44;4975692;28;20061;-85
2022/01/22 11:48:11;;;;;;;7.72;3.97;;;;;;;17.37;43.30;100918.50;4976984;28;20033;-85
2022/01/22 11:50:37;;;;;;;6.78;3.90;;;;;;;17.36;43.33;100909.75;4977952;28;20396;-85
2022/01/22 11:53:22;;;;;;;7.25;3.50;;;;;;;17.38;43.28;100902.66;4979785;28;20057;-84
2022/01/22 11:56:28;;;;;;;6.47;3.35;;;;;;;17.38;43.38;100905.28;4977531;28;20030;-84
2022/01/22 11:58:56;;;;;;;7.18;3.92;;;;;;;17.41;43.12;100899.09;4938278;28;20042;-86
2022/01/22 12:01:38;;;;;;;6.50;3.38;;;;;;;17.42;43.41;100901.69;4976139;28;20030;-86
2022/01/22 12:04:04;;;;;;;6.45;2.80;;;;;;;17.43;43.05;100898.13;4976086;28;20027;-84
2022/01/22 12:06:30;;;;;;;6.65;3.22;;;;;;;17.44;43.23;100884.03;4977328;28;20456;-84
2022/01/22 12:09:13;;;;;;;5.10;3.00;;;;;;;17.42;43.38;100883.22;4975834;28;20101;-85
2022/01/22 12:14:50;;;;;;;6.47;3.55;;;;;;;17.50;43.25;100879.53;4977255;28;20034;-85
2022/01/22 12:17:25;;;;;;;6.22;2.72;;;;;;;17.52;42.87;100890.91;4976218;28;20049;-86
2022/01/22 12:20:05;;;;;;;6.18;3.35;;;;;;;17.50;43.10;100885.69;4977634;28;20066;-84
2022/01/22 12:22:52;;;;;;;5.93;3.20;;;;;;;17.53;43.01;100882.94;4996614;28;20033;-86
2022/01/22 12:25:21;;;;;;;5.95;3.15;;;;;;;17.53;42.80;100877.69;4997373;28;20444;-85
2022/01/22 12:27:52;;;;;;;6.88;3.40;;;;;;;17.55;43.10;100875.00;4980215;28;20053;-83
2022/01/22 12:30:36;;;;;;;6.18;3.20;;;;;;;17.57;42.78;100867.91;4983105;28;20101;-85
2022/01/22 12:33:05;;;;;;;6.10;3.25;;;;;;;17.54;42.92;100863.56;4978313;28;20026;-84
2022/01/22 12:35:40;;;;;;;7.07;3.10;;;;;;;17.56;42.80;100863.53;4995249;28;20403;-84
2022/01/22 12:39:04;;;;;;;6.75;3.05;;;;;;;17.58;42.82;100869.66;4995657;28;20368;-85
2022/01/22 12:43:51;;;;;;;4.90;2.63;;;;;;;17.63;42.80;100866.91;4995072;28;20038;-85
2022/01/22 12:46:17;;;;;;;6.45;2.90;;;;;;;17.62;42.46;100855.47;4980189;28;20555;-85
2022/01/22 12:48:43;;;;;;;8.30;3.47;;;;;;;17.64;42.48;100855.44;4999478;28;20101;-84
2022/01/22 12:51:10;;;;;;;5.22;2.70;;;;;;;17.65;42.38;100855.41;4982336;28;20018;-84
2022/01/22 12:53:37;;;;;;;6.22;2.72;;;;;;;17.67;42.36;100853.59;4984332;28;20033;-84
2022/01/22 12:58:37;;;;;;;6.28;2.90;;;;;;;17.67;42.36;100842.19;5004334;28;20026;-85
2022/01/22 13:01:20;;;;;;;5.78;2.60;;;;;;;17.66;42.53;100835.13;4985418;28;20456;-83
2022/01/22 13:03:51;;;;;;;6.60;3.30;;;;;;;17.69;42.56;100835.06;5001551;28;20022;-85
2022/01/22 13:06:21;;;;;;;7.65;3.42;;;;;;;17.70;42.50;100827.13;4984171;28;20018;-85
2022/01/22 13:08:47;;;;;;;6.97;2.88;;;;;;;17.67;42.67;100829.84;4984729;28;20030;-85
2022/01/22 13:11:18;;;;;;;5.07;2.67;;;;;;;17.73;42.48;100830.59;5002566;28;20037;-86
2022/01/22 13:13:50;;;;;;;5.00;2.75;;;;;;;17.70;42.57;100827.13;5003107;28;20073;-85
2022/01/22 13:16:17;;;;;;;6.22;2.90;;;;;;;17.74;42.94;100824.41;5003292;28;20022;-85
2022/01/22 13:18:47;;;;;;;5.85;2.72;;;;;;;17.74;42.76;100821.75;5004112;28;20023;-85
2022/01/22 13:21:14;;;;;;;6.35;2.60;;;;;;;17.73;42.77;100814.75;4982565;28;20086;-86
2022/01/22 13:23:40;;;;;;;5.28;2.80;;;;;;;17.75;42.66;100810.28;4982776;28;20053;-85
2022/01/22 13:26:09;;;;;;;5.80;2.70;;;;;;;17.80;42.41;100811.03;4984366;28;20022;-85
2022/01/22 13:28:37;;;;;;;5.45;2.65;;;;;;;17.77;42.44;100800.56;4985034;28;20027;-85
2022/01/22 13:31:15;;;;;;;5.65;2.47;;;;;;;17.78;42.56;100802.28;4983954;28;20023;-86
2022/01/22 13:33:52;;;;;;;5.88;3.13;;;;;;;17.80;42.37;100795.19;4983807;28;20027;-85
2022/01/22 13:36:40;;;;;;;5.75;2.88;;;;;;;17.81;42.34;100794.28;4982066;28;20030;-84